createdAt,value
2023-04-16T00:01:44.288Z,83.38
2023-04-16T00:04:12.506Z,82.91
2023-04-16T00:06:40.618Z,83.09
2023-04-16T00:09:08.651Z,83.46
2023-04-16T00:11:38.040Z,83.75
2023-04-16T00:14:06.099Z,83.26
2023-04-16T00:16:34.665Z,84.26
2023-04-16T00:19:02.494Z,83.96
2023-04-16T00:21:31.240Z,83.69
2023-04-16T00:23:59.118Z,83.94
2023-04-16T00:26:26.952Z,84.50
2023-04-16T00:28:56.127Z,84.33
2023-04-16T00:31:29.123Z,84.87
2023-04-16T00:33:57.145Z,84.67
2023-04-16T00:36:25.171Z,84.57
2023-04-16T00:38:53.165Z,85.27
2023-04-16T00:41:21.623Z,85.42
2023-04-16T00:43:49.632Z,84.68
2023-04-16T00:46:21.304Z,84.85
2023-04-16T00:48:50.110Z,85.80
2023-04-16T00:51:21.384Z,84.96
2023-04-16T00:53:49.546Z,85.30
2023-04-16T00:56:17.922Z,85.04
2023-04-16T00:58:46.018Z,84.38
2023-04-16T01:01:14.725Z,84.65
2023-04-16T01:03:45.822Z,84.82
2023-04-16T01:06:14.449Z,84.55
2023-04-16T01:08:42.254Z,84.56
2023-04-16T01:11:12.133Z,84.58
2023-04-16T01:13:40.049Z,84.12
2023-04-16T01:16:08.303Z,84.21
2023-04-16T01:18:37.221Z,84.46
2023-04-16T01:21:07.159Z,84.09
2023-04-16T01:23:35.363Z,84.00
2023-04-16T01:26:03.161Z,84.07
2023-04-16T01:28:31.023Z,83.77
2023-04-16T01:30:58.935Z,84.92
2023-04-16T01:33:26.813Z,84.73
2023-04-16T01:35:54.886Z,84.21
2023-04-16T01:38:24.140Z,83.64
2023-04-16T01:40:51.967Z,84.45
2023-04-16T01:43:19.814Z,83.89
2023-04-16T01:45:47.702Z,83.58
2023-04-16T01:48:15.517Z,83.93
2023-04-16T01:50:43.512Z,83.75
2023-04-16T01:53:11.460Z,83.89
2023-04-16T01:55:40.612Z,84.20
2023-04-16T01:58:11.072Z,83.45
2023-04-16T02:00:39.123Z,83.75
2023-04-16T02:03:07.054Z,84.03
2023-04-16T02:05:34.903Z,83.94
2023-04-16T02:08:02.749Z,84.03
2023-04-16T02:10:30.568Z,83.72
2023-04-16T02:12:59.754Z,84.23
2023-04-16T02:15:27.571Z,84.33
2023-04-16T02:17:57.118Z,84.58
2023-04-16T02:20:25.206Z,85.04
2023-04-16T02:22:53.230Z,84.20
2023-04-16T02:25:21.262Z,84.52
2023-04-16T02:27:49.073Z,84.32
2023-04-16T02:30:18.797Z,84.78
2023-04-16T02:32:46.786Z,85.08
2023-04-16T02:35:14.590Z,84.82
2023-04-16T02:37:42.345Z,85.03
2023-04-16T02:40:11.649Z,84.28
2023-04-16T02:42:39.472Z,84.22
2023-04-16T02:45:08.348Z,84.46
2023-04-16T02:47:37.853Z,84.09
2023-04-16T02:50:07.024Z,84.43
2023-04-16T02:52:34.953Z,84.86
2023-04-16T02:55:03.114Z,84.16
2023-04-16T02:57:31.190Z,85.13
2023-04-16T02:59:59.198Z,84.80
2023-04-16T03:02:27.417Z,84.71
2023-04-16T03:04:56.657Z,84.94
2023-04-16T03:07:24.765Z,85.14
2023-04-16T03:09:52.884Z,84.70
2023-04-16T03:12:20.864Z,84.24
2023-04-16T03:14:48.743Z,83.98
2023-04-16T03:17:16.771Z,83.93
2023-04-16T03:19:44.676Z,84.11
2023-04-16T03:22:13.916Z,84.67
2023-04-16T03:24:41.842Z,83.82
2023-04-16T03:27:09.759Z,84.83
2023-04-16T03:29:38.091Z,84.27
2023-04-16T03:32:05.992Z,84.56
2023-04-16T03:34:33.864Z,84.08
2023-04-16T03:37:01.819Z,84.02
2023-04-16T03:39:31.173Z,84.45
2023-04-16T03:41:59.209Z,84.52
2023-04-16T03:44:27.109Z,83.94
2023-04-16T03:46:55.223Z,85.03
2023-04-16T03:49:23.163Z,84.65
2023-04-16T03:51:51.271Z,84.64
2023-04-16T03:54:21.314Z,84.57
2023-04-16T03:56:52.237Z,85.01
2023-04-16T03:59:20.087Z,85.79
2023-04-16T04:01:48.080Z,85.12
2023-04-16T04:04:16.371Z,85.34
2023-04-16T04:06:46.182Z,84.72
2023-04-16T04:09:14.088Z,84.77
2023-04-16T04:11:41.929Z,84.35
2023-04-16T04:14:11.175Z,84.39
2023-04-16T04:16:39.112Z,84.25
2023-04-16T04:19:07.027Z,83.57
2023-04-16T04:21:34.999Z,84.44
2023-04-16T04:24:02.869Z,83.91
2023-04-16T04:26:30.859Z,84.00
2023-04-16T04:28:58.780Z,83.82
2023-04-16T04:31:28.022Z,84.38
2023-04-16T04:33:56.399Z,84.49
2023-04-16T04:36:24.265Z,83.60
2023-04-16T04:38:52.199Z,82.71
2023-04-16T04:41:20.145Z,83.66
2023-04-16T04:43:48.109Z,82.63
2023-04-16T04:46:16.019Z,82.65
2023-04-16T04:48:45.290Z,82.59
2023-04-16T04:51:13.131Z,83.69
2023-04-16T04:53:41.011Z,83.59
2023-04-16T04:56:12.720Z,82.92
2023-04-16T04:58:41.494Z,82.41
2023-04-16T05:01:09.394Z,82.36
2023-04-16T05:03:37.536Z,82.95
2023-04-16T05:06:08.325Z,82.51
2023-04-16T05:08:36.433Z,82.02
2023-04-16T05:11:04.355Z,82.26
2023-04-16T05:13:32.130Z,82.06
2023-04-16T05:16:00.110Z,82.02
2023-04-16T05:18:27.944Z,82.06
2023-04-16T05:20:56.024Z,81.87
2023-04-16T05:23:25.317Z,82.04
2023-04-16T05:25:53.179Z,81.48
2023-04-16T05:28:21.076Z,82.18
2023-04-16T05:30:49.018Z,82.00
2023-04-16T05:33:17.166Z,81.29
2023-04-16T05:35:45.075Z,81.59
2023-04-16T05:38:12.941Z,81.36
2023-04-16T05:40:42.153Z,81.40
2023-04-16T05:43:10.085Z,81.21
2023-04-16T05:45:41.278Z,81.06
2023-04-16T05:48:10.056Z,80.14
2023-04-16T05:50:38.662Z,79.86
2023-04-16T05:53:08.652Z,79.79
2023-04-16T05:55:36.935Z,79.79
2023-04-16T05:58:06.368Z,79.86
2023-04-16T06:00:34.771Z,78.75
2023-04-16T06:03:03.871Z,77.88
2023-04-16T06:05:32.253Z,78.45
2023-04-16T06:08:00.458Z,77.63
2023-04-16T06:10:28.495Z,77.38
2023-04-16T06:12:56.343Z,77.45
2023-04-16T06:15:25.681Z,77.66
2023-04-16T06:17:53.567Z,76.90
2023-04-16T06:20:21.592Z,77.61
2023-04-16T06:22:49.452Z,77.37
2023-04-16T06:25:18.293Z,77.33
2023-04-16T06:27:46.265Z,77.90
2023-04-16T06:30:14.961Z,77.69
2023-04-16T06:32:46.562Z,77.96
2023-04-16T06:35:14.763Z,76.72
2023-04-16T06:37:42.791Z,77.07
2023-04-16T06:40:11.522Z,76.94
2023-04-16T06:42:39.655Z,76.30
2023-04-16T06:45:09.234Z,76.70
2023-04-16T06:47:37.207Z,77.42
2023-04-16T06:50:07.573Z,76.04
2023-04-16T06:52:35.805Z,76.04
2023-04-16T06:55:03.993Z,76.03
2023-04-16T06:57:32.050Z,76.22
2023-04-16T06:59:59.894Z,75.93
2023-04-16T07:02:28.002Z,76.14
2023-04-16T07:04:56.044Z,74.42
2023-04-16T07:07:25.671Z,74.53
2023-04-16T07:09:56.554Z,74.31
2023-04-16T07:12:24.526Z,74.69
2023-04-16T07:14:52.431Z,74.27
2023-04-16T07:17:20.504Z,74.50
2023-04-16T07:19:48.421Z,74.92
2023-04-16T07:22:16.697Z,75.01
2023-04-16T07:24:46.064Z,75.20
2023-04-16T07:27:13.923Z,75.34
2023-04-16T07:29:41.992Z,73.91
2023-04-16T07:32:10.093Z,74.67
2023-04-16T07:34:37.993Z,74.80
2023-04-16T07:37:05.980Z,74.88
2023-04-16T07:39:33.869Z,74.30
2023-04-16T07:42:03.166Z,74.29
2023-04-16T07:44:31.225Z,74.52
2023-04-16T07:46:59.190Z,73.69
2023-04-16T07:49:27.191Z,74.28
2023-04-16T07:51:54.966Z,74.37
2023-04-16T07:54:22.765Z,73.56
2023-04-16T07:56:50.633Z,74.22
2023-04-16T07:59:23.561Z,73.79
2023-04-16T08:01:54.551Z,73.96
2023-04-16T08:04:25.415Z,73.02
2023-04-16T08:06:54.539Z,73.27
2023-04-16T08:09:24.608Z,73.85
2023-04-16T08:11:52.600Z,73.02
2023-04-16T08:14:21.969Z,73.61
2023-04-16T08:16:49.952Z,73.27
2023-04-16T08:19:17.858Z,72.90
2023-04-16T08:21:45.790Z,72.89
2023-04-16T08:24:13.756Z,72.77
2023-04-16T08:26:41.664Z,73.30
2023-04-16T08:29:09.665Z,72.39
2023-04-16T08:31:40.186Z,72.14
2023-04-16T08:34:08.029Z,72.09
2023-04-16T08:36:35.830Z,71.76
2023-04-16T08:39:03.762Z,72.20
2023-04-16T08:41:33.432Z,71.85
2023-04-16T08:44:06.066Z,71.65
2023-04-16T08:46:37.873Z,72.00
2023-04-16T08:49:09.320Z,71.21
2023-04-16T08:51:37.792Z,70.25
2023-04-16T08:54:09.934Z,70.14
2023-04-16T08:56:38.955Z,69.81
2023-04-16T08:59:07.882Z,68.95
2023-04-16T09:01:36.648Z,68.98
2023-04-16T09:04:06.335Z,68.71
2023-04-16T09:06:37.506Z,68.10
2023-04-16T09:09:06.256Z,67.77
2023-04-16T09:11:34.208Z,67.91
2023-04-16T09:14:02.733Z,67.74
2023-04-16T09:16:34.660Z,67.92
2023-04-16T09:19:02.588Z,67.77
2023-04-16T09:21:31.040Z,67.63
2023-04-16T09:24:01.168Z,67.53
2023-04-16T09:26:29.222Z,67.86
2023-04-16T09:28:56.992Z,67.25
2023-04-16T09:31:24.938Z,67.53
2023-04-16T09:34:04.214Z,67.02
2023-04-16T09:36:33.726Z,67.25
2023-04-16T09:39:03.911Z,66.95
2023-04-16T09:41:35.941Z,66.78
2023-04-16T09:44:05.605Z,66.88
2023-04-16T09:46:36.606Z,67.49
2023-04-16T09:49:09.965Z,67.22
2023-04-16T09:51:38.923Z,66.86
2023-04-16T09:54:08.708Z,66.70
2023-04-16T09:56:41.245Z,66.74
2023-04-16T09:59:10.103Z,66.07
2023-04-16T10:01:38.528Z,65.65
2023-04-16T10:04:08.108Z,65.46
2023-04-16T10:06:36.190Z,65.35
2023-04-16T10:09:10.921Z,65.41
2023-04-16T10:11:39.036Z,65.68
2023-04-16T10:14:06.885Z,65.43
2023-04-16T10:16:35.748Z,65.05
2023-04-16T10:19:03.774Z,65.45
2023-04-16T10:21:34.433Z,65.64
2023-04-16T10:24:02.752Z,65.46
2023-04-16T10:26:32.576Z,64.98
2023-04-16T10:29:01.194Z,64.49
2023-04-16T10:31:30.203Z,64.20
2023-04-16T10:33:59.547Z,63.95
2023-04-16T10:36:27.729Z,64.33
2023-04-16T10:39:00.770Z,63.42
2023-04-16T10:41:28.950Z,63.06
2023-04-16T10:44:09.527Z,62.87
2023-04-16T10:46:39.815Z,62.94
2023-04-16T10:49:15.534Z,62.01
2023-04-16T10:51:43.410Z,62.22
2023-04-16T10:54:22.903Z,62.25
2023-04-16T10:56:51.522Z,62.30
2023-04-16T10:59:22.469Z,61.84
2023-04-16T11:01:52.459Z,61.03
2023-04-16T11:04:45.152Z,60.65
2023-04-16T11:07:33.087Z,60.29
2023-04-16T11:10:02.491Z,60.03
2023-04-16T11:12:35.941Z,59.76
2023-04-16T11:15:06.749Z,59.83
2023-04-16T11:17:38.295Z,59.49
2023-04-16T11:20:17.389Z,59.36
2023-04-16T11:22:49.022Z,58.97
2023-04-16T11:25:20.942Z,59.85
2023-04-16T11:27:48.729Z,60.22
2023-04-16T11:30:18.818Z,60.29
2023-04-16T11:32:47.222Z,60.44
2023-04-16T11:35:16.313Z,60.86
2023-04-16T11:37:44.420Z,60.73
2023-04-16T11:40:13.328Z,60.69
2023-04-16T11:42:42.403Z,60.51
2023-04-16T11:45:12.493Z,60.68
2023-04-16T11:47:51.783Z,59.99
2023-04-16T11:50:22.159Z,59.22
2023-04-16T11:52:51.363Z,59.33
2023-04-16T11:55:19.743Z,58.19
2023-04-16T11:57:48.085Z,57.66
2023-04-16T12:00:16.745Z,57.65
2023-04-16T12:02:46.153Z,57.66
2023-04-16T12:05:34.037Z,56.81
2023-04-16T12:08:03.407Z,56.59
2023-04-16T12:10:36.070Z,56.17
2023-04-16T12:13:14.180Z,55.23
2023-04-16T12:15:48.991Z,55.35
2023-04-16T12:18:17.372Z,53.38
2023-04-16T12:20:47.536Z,53.63
2023-04-16T12:23:24.343Z,53.92
2023-04-16T12:25:52.270Z,54.54
2023-04-16T12:28:29.381Z,53.54
2023-04-16T12:30:57.632Z,53.80
2023-04-16T12:33:25.697Z,54.39
2023-04-16T12:35:55.015Z,54.76
2023-04-16T12:38:24.559Z,53.61
2023-04-16T12:40:56.572Z,53.14
2023-04-16T12:43:24.732Z,52.84
2023-04-16T12:45:52.599Z,52.67
2023-04-16T12:48:20.569Z,53.11
2023-04-16T12:50:48.416Z,53.02
2023-04-16T12:53:17.591Z,53.08
2023-04-16T12:55:45.906Z,52.43
2023-04-16T12:58:13.752Z,53.37
2023-04-16T13:00:41.570Z,52.82
2023-04-16T13:03:09.530Z,53.80
2023-04-16T13:05:37.420Z,53.75
2023-04-16T13:08:05.462Z,53.85
2023-04-16T13:10:34.928Z,54.37
2023-04-16T13:13:02.804Z,54.36
2023-04-16T13:15:30.748Z,54.38
2023-04-16T13:17:58.716Z,54.40
2023-04-16T13:20:26.748Z,54.99
2023-04-16T13:22:55.293Z,55.09
2023-04-16T13:25:23.120Z,54.39
2023-04-16T13:27:52.696Z,54.24
2023-04-16T13:30:20.680Z,54.18
2023-04-16T13:32:48.590Z,52.88
2023-04-16T13:35:16.423Z,51.02
2023-04-16T13:37:44.231Z,50.88
2023-04-16T13:40:12.067Z,50.16
2023-04-16T13:42:39.886Z,49.48
2023-04-16T13:45:10.218Z,49.13
2023-04-16T13:47:39.438Z,49.08
2023-04-16T13:50:08.076Z,48.27
2023-04-16T13:52:36.506Z,47.41
2023-04-16T13:55:04.623Z,46.41
2023-04-16T13:57:32.474Z,46.71
2023-04-16T14:00:00.364Z,46.77
2023-04-16T14:02:29.965Z,47.26
2023-04-16T14:04:57.810Z,47.95
2023-04-16T14:07:27.454Z,48.44
2023-04-16T14:09:55.503Z,49.00
2023-04-16T14:12:23.451Z,49.25
2023-04-16T14:14:51.444Z,48.76
2023-04-16T14:17:19.386Z,48.87
2023-04-16T14:19:48.672Z,49.83
2023-04-16T14:22:17.881Z,50.50
2023-04-16T14:24:45.838Z,51.31
2023-04-16T14:27:13.736Z,51.96
2023-04-16T14:29:42.118Z,52.71
2023-04-16T14:32:10.042Z,53.74
2023-04-16T14:34:38.017Z,54.42
2023-04-16T14:37:07.311Z,54.29
2023-04-16T14:39:36.449Z,55.13
2023-04-16T14:42:04.334Z,56.18
2023-04-16T14:44:32.219Z,55.88
2023-04-16T14:47:00.099Z,56.21
2023-04-16T14:49:28.127Z,56.88
2023-04-16T14:51:56.706Z,56.90
2023-04-16T14:54:26.571Z,57.95
2023-04-16T14:56:54.775Z,57.82
2023-04-16T14:59:22.814Z,58.25
2023-04-16T15:01:51.779Z,58.54
2023-04-16T15:04:19.964Z,58.42
2023-04-16T15:06:48.023Z,58.39
2023-04-16T15:09:15.939Z,58.47
2023-04-16T15:11:45.258Z,58.65
2023-04-16T15:14:13.492Z,58.96
2023-04-16T15:16:41.575Z,58.77
2023-04-16T15:19:10.070Z,58.79
2023-04-16T15:21:38.299Z,58.29
2023-04-16T15:24:06.618Z,58.23
2023-04-16T15:26:34.439Z,57.99
2023-04-16T15:29:03.645Z,58.16
2023-04-16T15:31:31.632Z,57.61
2023-04-16T15:34:00.797Z,57.92
2023-04-16T15:36:28.651Z,57.89
2023-04-16T15:38:56.558Z,58.19
2023-04-16T15:41:24.674Z,57.97
2023-04-16T15:43:52.564Z,57.77
2023-04-16T15:46:21.750Z,58.22
2023-04-16T15:48:49.634Z,57.82
2023-04-16T15:51:17.530Z,58.17
2023-04-16T15:53:45.543Z,58.28
2023-04-16T15:56:13.413Z,57.68
2023-04-16T15:58:41.589Z,58.04
2023-04-16T16:01:09.552Z,57.74
2023-04-16T16:03:38.968Z,58.17
2023-04-16T16:06:08.538Z,57.84
2023-04-16T16:08:38.280Z,58.04
2023-04-16T16:11:06.269Z,58.12
2023-04-16T16:13:35.956Z,58.01
2023-04-16T16:16:03.870Z,58.32
2023-04-16T16:18:31.819Z,58.63
2023-04-16T16:21:01.037Z,58.68
2023-04-16T16:23:28.927Z,58.60
2023-04-16T16:25:56.932Z,59.45
2023-04-16T16:28:25.205Z,59.86
2023-04-16T16:30:55.557Z,59.79
2023-04-16T16:33:23.708Z,60.23
2023-04-16T16:35:51.587Z,60.14
2023-04-16T16:38:20.908Z,60.21
2023-04-16T16:40:48.752Z,60.68
2023-04-16T16:43:17.054Z,60.71
2023-04-16T16:45:45.125Z,60.58
2023-04-16T16:48:13.119Z,61.39
2023-04-16T16:50:41.012Z,61.68
2023-04-16T16:53:09.260Z,61.97
2023-04-16T16:55:38.459Z,61.58
2023-04-16T16:58:06.300Z,61.89
2023-04-16T17:00:34.241Z,62.22
2023-04-16T17:03:02.333Z,62.29
2023-04-16T17:05:30.408Z,62.33
2023-04-16T17:07:58.290Z,62.36
2023-04-16T17:10:26.354Z,63.21
2023-04-16T17:12:55.697Z,63.29
2023-04-16T17:15:23.572Z,63.86
2023-04-16T17:17:51.530Z,64.07
2023-04-16T17:20:20.032Z,64.45
2023-04-16T17:22:48.030Z,64.33
2023-04-16T17:25:16.274Z,64.33
2023-04-16T17:27:44.187Z,64.68
2023-04-16T17:30:13.954Z,64.46
2023-04-16T17:32:41.813Z,64.57
2023-04-16T17:35:11.034Z,64.94
2023-04-16T17:37:39.029Z,65.35
2023-04-16T17:40:09.704Z,65.33
2023-04-16T17:42:37.947Z,66.16
2023-04-16T17:45:06.578Z,65.79
2023-04-16T17:47:37.081Z,66.36
2023-04-16T17:50:05.878Z,66.43
2023-04-16T17:52:33.725Z,66.26
2023-04-16T17:55:01.752Z,66.67
2023-04-16T17:57:29.749Z,66.98
2023-04-16T17:59:58.096Z,67.14
2023-04-16T18:02:26.374Z,67.24
2023-04-16T18:04:56.324Z,67.29
2023-04-16T18:07:24.209Z,67.36
2023-04-16T18:09:52.033Z,67.10
2023-04-16T18:12:20.106Z,67.65
2023-04-16T18:14:48.001Z,67.62
2023-04-16T18:17:16.025Z,68.13
2023-04-16T18:19:44.838Z,67.98
2023-04-16T18:22:14.028Z,68.26
2023-04-16T18:24:41.909Z,68.22
2023-04-16T18:27:09.889Z,68.84
2023-04-16T18:29:40.003Z,68.65
2023-04-16T18:32:11.773Z,68.41
2023-04-16T18:34:40.268Z,68.32
2023-04-16T18:37:08.235Z,68.57
2023-04-16T18:39:37.745Z,68.75
2023-04-16T18:42:06.331Z,68.80
2023-04-16T18:44:34.225Z,68.29
2023-04-16T18:47:02.241Z,68.90
2023-04-16T18:49:30.150Z,68.81
2023-04-16T18:51:58.181Z,69.13
2023-04-16T18:54:26.012Z,69.07
2023-04-16T18:56:55.350Z,69.12
2023-04-16T18:59:23.284Z,69.15
2023-04-16T19:01:51.215Z,69.03
2023-04-16T19:04:19.500Z,68.95
2023-04-16T19:06:48.546Z,69.44
2023-04-16T19:09:16.943Z,69.58
2023-04-16T19:11:45.187Z,70.23
2023-04-16T19:14:14.381Z,69.94
2023-04-16T19:16:42.571Z,70.51
2023-04-16T19:19:10.624Z,70.09
2023-04-16T19:21:38.704Z,70.51
2023-04-16T19:24:07.227Z,70.63
2023-04-16T19:26:35.168Z,70.30
2023-04-16T19:29:03.526Z,70.58
2023-04-16T19:31:32.749Z,71.41
2023-04-16T19:34:00.565Z,71.36
2023-04-16T19:36:28.458Z,71.45
2023-04-16T19:38:56.254Z,71.85
2023-04-16T19:41:24.162Z,72.32
2023-04-16T19:43:51.964Z,72.61
2023-04-16T19:46:19.844Z,73.07
2023-04-16T19:48:49.388Z,73.24
2023-04-16T19:51:17.333Z,73.13
2023-04-16T19:53:45.369Z,73.36
2023-04-16T19:56:14.054Z,73.96
2023-04-16T19:58:41.892Z,73.37
2023-04-16T20:01:10.646Z,73.73
2023-04-16T20:03:38.736Z,74.64
2023-04-16T20:06:08.034Z,74.24
2023-04-16T20:08:36.072Z,75.09
2023-04-16T20:11:04.040Z,74.47
2023-04-16T20:13:31.978Z,74.79
2023-04-16T20:16:01.213Z,74.37
2023-04-16T20:18:29.058Z,74.79
2023-04-16T20:20:56.972Z,75.63
2023-04-16T20:23:26.238Z,75.42
2023-04-16T20:25:54.133Z,74.77
2023-04-16T20:28:22.245Z,75.69
2023-04-16T20:30:51.009Z,75.42
2023-04-16T20:33:19.121Z,76.06
2023-04-16T20:35:47.248Z,76.14
2023-04-16T20:38:15.137Z,76.07
2023-04-16T20:40:47.188Z,76.00
2023-04-16T20:43:18.741Z,75.76
2023-04-16T20:45:46.583Z,76.15
2023-04-16T20:48:14.569Z,76.22
2023-04-16T20:50:42.445Z,76.55
2023-04-16T20:53:10.448Z,76.27
2023-04-16T20:55:38.405Z,76.57
2023-04-16T20:58:07.610Z,76.86
2023-04-16T21:00:36.107Z,76.37
2023-04-16T21:03:04.173Z,76.49
2023-04-16T21:05:33.980Z,76.63
2023-04-16T21:08:01.727Z,76.33
2023-04-16T21:10:29.523Z,77.03
2023-04-16T21:12:57.304Z,76.90
2023-04-16T21:15:26.602Z,77.01
2023-04-16T21:17:54.494Z,77.61
2023-04-16T21:20:22.349Z,77.41
2023-04-16T21:22:51.218Z,77.25
2023-04-16T21:25:19.097Z,78.10
2023-04-16T21:27:46.952Z,78.14
2023-04-16T21:30:15.802Z,77.93
2023-04-16T21:32:45.228Z,78.11
2023-04-16T21:35:13.323Z,77.77
2023-04-16T21:37:41.186Z,78.32
2023-04-16T21:40:09.791Z,77.71
2023-04-16T21:42:39.791Z,78.36
2023-04-16T21:45:09.092Z,77.89
2023-04-16T21:47:37.245Z,78.25
2023-04-16T21:50:07.340Z,77.96
2023-04-16T21:52:40.445Z,78.82
2023-04-16T21:55:10.286Z,78.80
2023-04-16T21:57:38.232Z,78.47
2023-04-16T22:00:09.204Z,78.04
2023-04-16T22:02:37.160Z,78.88
2023-04-16T22:05:07.478Z,78.26
2023-04-16T22:07:36.455Z,78.43
2023-04-16T22:10:04.501Z,78.69
2023-04-16T22:12:32.464Z,78.38
2023-04-16T22:15:02.718Z,78.65
2023-04-16T22:17:31.238Z,79.44
2023-04-16T22:20:00.726Z,78.56
2023-04-16T22:22:30.018Z,79.10
2023-04-16T22:24:57.893Z,79.03
2023-04-16T22:27:26.099Z,79.59
2023-04-16T22:29:53.912Z,79.62
2023-04-16T22:32:21.823Z,79.58
2023-04-16T22:34:49.725Z,79.28
2023-04-16T22:37:17.661Z,79.21
2023-04-16T22:39:46.861Z,79.38
2023-04-16T22:42:14.713Z,79.31
2023-04-16T22:44:42.546Z,79.32
2023-04-16T22:47:10.386Z,79.73
2023-04-16T22:49:38.326Z,79.23
2023-04-16T22:52:06.305Z,79.57
2023-04-16T22:54:34.694Z,79.46
2023-04-16T22:57:03.880Z,80.22
2023-04-16T22:59:32.257Z,79.18
2023-04-16T23:02:00.203Z,79.68
2023-04-16T23:04:28.103Z,79.52
2023-04-16T23:06:56.295Z,79.97
2023-04-16T23:09:24.368Z,79.37
2023-04-16T23:11:52.207Z,80.20
2023-04-16T23:14:21.460Z,80.00
2023-04-16T23:16:49.353Z,80.17
2023-04-16T23:19:17.176Z,79.30
2023-04-16T23:21:45.207Z,80.50
2023-04-16T23:24:13.232Z,80.96
2023-04-16T23:26:41.160Z,80.00
2023-04-16T23:29:08.998Z,79.75
2023-04-16T23:31:38.250Z,79.69
2023-04-16T23:34:06.057Z,79.61
2023-04-16T23:36:33.921Z,79.47
2023-04-16T23:39:01.746Z,80.29
2023-04-16T23:41:29.647Z,80.23
2023-04-16T23:43:57.634Z,80.63
2023-04-16T23:46:25.628Z,79.72
2023-04-16T23:48:55.294Z,79.98
2023-04-16T23:51:23.347Z,79.30
2023-04-16T23:53:51.169Z,80.18
2023-04-16T23:56:18.946Z,79.56
2023-04-16T23:58:46.791Z,80.18
